createdAt,value
2023-03-15T07:04:56.833Z,1108.00
2023-03-15T07:05:56.722Z,1288.00
2023-03-15T07:06:56.656Z,1464.00
2023-03-15T07:07:56.665Z,1528.00
2023-03-15T07:08:56.649Z,1488.00
2023-03-15T07:09:56.728Z,1640.00
2023-03-15T07:10:56.682Z,1816.00
2023-03-15T07:11:56.597Z,1728.00
2023-03-15T07:12:56.634Z,1580.00
2023-03-15T07:13:56.563Z,1584.00
2023-03-15T07:14:56.549Z,1760.00
2023-03-15T07:15:56.708Z,2036.00
2023-03-15T07:16:56.510Z,2188.00
2023-03-15T07:17:56.502Z,2120.00
2023-03-15T07:18:56.597Z,2068.00
2023-03-15T07:19:57.024Z,1884.00
2023-03-15T07:20:56.460Z,1728.00
2023-03-15T07:21:56.462Z,1856.00
2023-03-15T07:22:56.438Z,2088.00
2023-03-15T07:23:56.436Z,2064.00
2023-03-15T07:24:56.405Z,2024.00
2023-03-15T07:25:56.640Z,2108.00
2023-03-15T07:26:56.568Z,2288.00
2023-03-15T07:27:56.438Z,2248.00
2023-03-15T07:28:56.436Z,2212.00
2023-03-15T07:29:56.466Z,2196.00
2023-03-15T07:30:56.419Z,2216.00
2023-03-15T07:31:56.438Z,2216.00
2023-03-15T07:32:56.635Z,2152.00
2023-03-15T07:33:56.461Z,2244.00
2023-03-15T07:34:56.291Z,2608.00
2023-03-15T07:35:56.397Z,2572.00
2023-03-15T07:36:56.290Z,2464.00
2023-03-15T07:37:56.397Z,2432.00
2023-03-15T07:38:56.265Z,2352.00
2023-03-15T07:39:56.255Z,2216.00
2023-03-15T07:40:56.224Z,2344.00
2023-03-15T07:41:56.258Z,2804.00
2023-03-15T07:42:56.237Z,3076.00
2023-03-15T07:43:58.393Z,3340.00
2023-03-15T07:44:56.191Z,2860.00
2023-03-15T07:45:56.247Z,3200.00
2023-03-15T07:46:56.286Z,3512.00
2023-03-15T07:47:56.654Z,3512.00
2023-03-15T07:48:56.179Z,3340.00
2023-03-15T07:49:56.091Z,3092.00
2023-03-15T07:50:56.076Z,3092.00
2023-03-15T07:52:55.302Z,2992.00
2023-03-15T07:53:55.274Z,3176.00
2023-03-15T07:54:55.250Z,3396.00
2023-03-15T07:55:55.270Z,3360.00
2023-03-15T07:56:55.225Z,3420.00
2023-03-15T07:57:55.209Z,3504.00
2023-03-15T07:58:55.205Z,3456.00
2023-03-15T07:59:55.197Z,3784.00
2023-03-15T08:00:55.168Z,3700.00
2023-03-15T08:01:55.221Z,3236.00
2023-03-15T08:02:55.185Z,2912.00
2023-03-15T08:03:55.137Z,2900.00
2023-03-15T08:04:55.116Z,2956.00
2023-03-15T08:05:56.106Z,2960.00
2023-03-15T08:06:55.111Z,3160.00
2023-03-15T08:07:55.101Z,3832.00
2023-03-15T08:08:55.095Z,3620.00
2023-03-15T08:09:55.062Z,3256.00
2023-03-15T08:10:55.048Z,3160.00
2023-03-15T08:11:55.037Z,2624.00
2023-03-15T08:12:55.016Z,2612.00
2023-03-15T08:13:55.006Z,2712.00
2023-03-15T08:14:55.021Z,2816.00
2023-03-15T08:15:55.078Z,3112.00
2023-03-15T08:16:55.043Z,3384.00
2023-03-15T08:17:54.987Z,3092.00
2023-03-15T08:18:54.948Z,3196.00
2023-03-15T08:19:54.977Z,3316.00
2023-03-15T08:20:54.919Z,3644.00
2023-03-15T08:21:54.908Z,4284.00
2023-03-15T08:22:54.897Z,5084.00
2023-03-15T08:23:54.909Z,4076.00
2023-03-15T08:24:54.897Z,3940.00
2023-03-15T08:25:54.884Z,3508.00
2023-03-15T08:26:54.859Z,3448.00
2023-03-15T08:27:54.842Z,3980.00
2023-03-15T08:28:54.844Z,3720.00
2023-03-15T08:29:54.854Z,3440.00
2023-03-15T08:30:54.801Z,3840.00
2023-03-15T08:31:54.880Z,4132.00
2023-03-15T08:32:54.832Z,3620.00
2023-03-15T08:33:54.784Z,3372.00
2023-03-15T08:34:54.800Z,3056.00
2023-03-15T08:35:54.828Z,3700.00
2023-03-15T08:36:54.811Z,4488.00
2023-03-15T08:37:54.719Z,4560.00
2023-03-15T08:38:54.704Z,4292.00
2023-03-15T08:39:54.700Z,3832.00
2023-03-15T08:40:54.704Z,3352.00
2023-03-15T08:41:54.672Z,3284.00
2023-03-15T08:42:54.674Z,3264.00
2023-03-15T08:43:54.662Z,3524.00
2023-03-15T08:44:54.660Z,4020.00
2023-03-15T08:46:01.072Z,4732.00
2023-03-15T08:46:55.768Z,5600.00
2023-03-15T08:47:54.606Z,5256.00
2023-03-15T08:48:54.582Z,4484.00
2023-03-15T08:49:54.585Z,4460.00
2023-03-15T08:50:54.565Z,4156.00
2023-03-15T08:51:54.550Z,5316.00
2023-03-15T08:52:54.574Z,4216.00
2023-03-15T08:53:54.546Z,3360.00
2023-03-15T08:54:54.511Z,2776.00
2023-03-15T08:55:54.506Z,2692.00
2023-03-15T08:56:54.484Z,2892.00
2023-03-15T08:57:54.509Z,3148.00
2023-03-15T08:58:54.460Z,3108.00
2023-03-15T08:59:54.466Z,3192.00
2023-03-15T09:00:54.432Z,3340.00
2023-03-15T09:01:54.443Z,3692.00
2023-03-15T09:02:54.413Z,3852.00
2023-03-15T09:03:54.456Z,3860.00
2023-03-15T09:04:54.414Z,3836.00
2023-03-15T09:05:54.371Z,4548.00
2023-03-15T09:06:55.072Z,5876.00
2023-03-15T09:07:54.354Z,6068.00
2023-03-15T09:08:54.351Z,6052.00
2023-03-15T09:09:54.370Z,5692.00
2023-03-15T09:10:54.361Z,5172.00
2023-03-15T09:11:54.317Z,4752.00
2023-03-15T09:12:54.291Z,4408.00
2023-03-15T09:13:54.313Z,3984.00
2023-03-15T09:14:54.296Z,3304.00
2023-03-15T09:15:54.261Z,2684.00
2023-03-15T09:16:54.304Z,2312.00
2023-03-15T09:17:54.281Z,2244.00
2023-03-15T09:18:54.216Z,2284.00
2023-03-15T09:19:54.222Z,2524.00
2023-03-15T09:20:54.216Z,2900.00
2023-03-15T09:21:54.218Z,3472.00
2023-03-15T09:22:54.188Z,3760.00
2023-03-15T09:23:54.231Z,3852.00
2023-03-15T09:24:54.176Z,4128.00
2023-03-15T09:25:54.147Z,4312.00
2023-03-15T09:26:54.129Z,4208.00
2023-03-15T09:27:54.136Z,4036.00
2023-03-15T09:28:54.123Z,3632.00
2023-03-15T09:29:54.140Z,3576.00
2023-03-15T09:30:54.212Z,3692.00
2023-03-15T09:31:54.073Z,4136.00
2023-03-15T09:32:54.080Z,4848.00
2023-03-15T09:33:54.046Z,5420.00
2023-03-15T09:34:54.044Z,5584.00
2023-03-15T09:35:54.069Z,5244.00
2023-03-15T09:36:54.015Z,4848.00
2023-03-15T09:37:54.023Z,4480.00
2023-03-15T09:38:54.018Z,5644.00
2023-03-15T09:39:53.986Z,5620.00
2023-03-15T09:40:53.976Z,5468.00
2023-03-15T09:41:53.965Z,5288.00
2023-03-15T09:42:53.950Z,4936.00
2023-03-15T09:43:53.959Z,4632.00
2023-03-15T09:44:53.917Z,4536.00
2023-03-15T09:45:53.985Z,4576.00
2023-03-15T09:46:54.018Z,4716.00
2023-03-15T09:47:53.885Z,4948.00
2023-03-15T09:48:53.923Z,5220.00
2023-03-15T09:49:53.858Z,5176.00
2023-03-15T09:50:53.848Z,6224.00
2023-03-15T09:51:53.833Z,6676.00
2023-03-15T09:52:53.840Z,6960.00
2023-03-15T09:53:53.832Z,7020.00
2023-03-15T09:54:53.819Z,6884.00
2023-03-15T09:55:53.783Z,6508.00
2023-03-15T09:56:53.756Z,4192.00
2023-03-15T09:57:53.858Z,3620.00
2023-03-15T09:58:53.751Z,3648.00
2023-03-15T09:59:53.726Z,5068.00
2023-03-15T10:00:53.726Z,5092.00
2023-03-15T10:01:53.775Z,5324.00
2023-03-15T10:02:53.685Z,5604.00
2023-03-15T10:03:53.822Z,5428.00
2023-03-15T10:04:53.662Z,5456.00
2023-03-15T10:05:53.657Z,5704.00
2023-03-15T10:06:53.645Z,5544.00
2023-03-15T10:07:53.641Z,5908.00
2023-03-15T10:08:53.604Z,6456.00
2023-03-15T10:09:53.613Z,7352.00
2023-03-15T10:10:53.605Z,7720.00
2023-03-15T10:11:53.572Z,3920.00
2023-03-15T10:12:53.546Z,5800.00
2023-03-15T10:13:53.548Z,7780.00
2023-03-15T10:14:53.546Z,7392.00
2023-03-15T10:15:53.625Z,6704.00
2023-03-15T10:16:53.538Z,6080.00
2023-03-15T10:17:53.493Z,5596.00
2023-03-15T10:18:53.498Z,5352.00
2023-03-15T10:19:53.463Z,5268.00
2023-03-15T10:20:53.467Z,5288.00
2023-03-15T10:21:53.475Z,5288.00
2023-03-15T10:22:53.411Z,5428.00
2023-03-15T10:23:53.408Z,5488.00
2023-03-15T10:24:53.394Z,5704.00
2023-03-15T10:25:53.371Z,5916.00
2023-03-15T10:26:53.449Z,6168.00
2023-03-15T10:27:53.346Z,6416.00
2023-03-15T10:28:53.331Z,6680.00
2023-03-15T10:29:53.329Z,6728.00
2023-03-15T10:30:53.319Z,6500.00
2023-03-15T10:31:53.377Z,6248.00
2023-03-15T10:32:53.313Z,6124.00
2023-03-15T10:33:53.283Z,5960.00
2023-03-15T10:34:53.240Z,5828.00
2023-03-15T10:35:58.625Z,5804.00
2023-03-15T10:36:54.295Z,5960.00
2023-03-15T10:37:53.220Z,6172.00
2023-03-15T10:38:53.197Z,6380.00
2023-03-15T10:39:53.167Z,6340.00
2023-03-15T10:40:53.196Z,6064.00
2023-03-15T10:41:53.234Z,5760.00
2023-03-15T10:42:53.148Z,5620.00
2023-03-15T10:43:53.128Z,5536.00
2023-03-15T10:44:53.197Z,5416.00
2023-03-15T10:45:53.263Z,5484.00
2023-03-15T10:46:53.173Z,5684.00
2023-03-15T10:48:00.255Z,5944.00
2023-03-15T10:48:54.125Z,6360.00
2023-03-15T10:49:53.039Z,6572.00
2023-03-15T10:50:53.031Z,6808.00
2023-03-15T10:51:53.228Z,6872.00
2023-03-15T10:52:53.016Z,4532.00
2023-03-15T10:53:53.018Z,5388.00
2023-03-15T10:55:02.362Z,6860.00
2023-03-15T10:55:53.966Z,4692.00
2023-03-15T10:56:52.946Z,4740.00
2023-03-15T10:57:52.965Z,4764.00
2023-03-15T10:59:09.531Z,4684.00
2023-03-15T10:59:53.907Z,4356.00
2023-03-15T11:00:52.936Z,3940.00
2023-03-15T11:01:53.064Z,3624.00
2023-03-15T11:02:52.894Z,3364.00
2023-03-15T11:03:52.851Z,2996.00
2023-03-15T11:04:52.823Z,2756.00
2023-03-15T11:05:52.829Z,4608.00
2023-03-15T11:06:52.798Z,2828.00
2023-03-15T11:07:52.842Z,4356.00
2023-03-15T11:08:52.773Z,5216.00
2023-03-15T11:09:52.768Z,5016.00
2023-03-15T11:10:52.783Z,5404.00
2023-03-15T11:11:52.752Z,5512.00
2023-03-15T11:12:52.734Z,5556.00
2023-03-15T11:13:52.724Z,5688.00
2023-03-15T11:14:52.685Z,5824.00
2023-03-15T11:15:52.747Z,5964.00
2023-03-15T11:16:52.667Z,6012.00
2023-03-15T11:17:52.637Z,5900.00
2023-03-15T11:18:52.723Z,5816.00
2023-03-15T11:19:52.643Z,5828.00
2023-03-15T11:20:52.593Z,5840.00
2023-03-15T11:21:52.595Z,5832.00
2023-03-15T11:22:52.699Z,5848.00
2023-03-15T11:23:52.579Z,5772.00
2023-03-15T11:24:52.618Z,5828.00
2023-03-15T11:25:52.556Z,5780.00
2023-03-15T11:26:52.549Z,5768.00
2023-03-15T11:27:52.556Z,5748.00
2023-03-15T11:28:52.507Z,5736.00
2023-03-15T11:29:52.484Z,5708.00
2023-03-15T11:30:52.469Z,5688.00
2023-03-15T11:31:52.481Z,5668.00
2023-03-15T11:32:52.456Z,5284.00
2023-03-15T11:33:52.448Z,5552.00
2023-03-15T11:34:52.454Z,3108.00
2023-03-15T11:35:52.425Z,3084.00
2023-03-15T11:37:05.358Z,2984.00
2023-03-15T11:37:56.715Z,3040.00
2023-03-15T11:38:53.356Z,3312.00
2023-03-15T11:39:58.776Z,5824.00
2023-03-15T11:40:53.321Z,5712.00
2023-03-15T11:41:52.322Z,5760.00
2023-03-15T11:42:52.334Z,3112.00
2023-03-15T11:43:52.337Z,3160.00
2023-03-15T11:44:52.277Z,3248.00
2023-03-15T11:45:52.340Z,3212.00
2023-03-15T11:46:52.255Z,3232.00
2023-03-15T11:47:52.350Z,4368.00
2023-03-15T11:48:52.221Z,3368.00
2023-03-15T11:49:52.221Z,3232.00
2023-03-15T11:50:52.227Z,3184.00
2023-03-15T11:51:52.218Z,3284.00
2023-03-15T11:52:52.213Z,3384.00
2023-03-15T11:53:52.174Z,6136.00
2023-03-15T11:54:52.141Z,6136.00
2023-03-15T11:55:52.156Z,6244.00
2023-03-15T11:56:52.109Z,6324.00
2023-03-15T11:57:52.144Z,6408.00
2023-03-15T11:58:52.077Z,6456.00
2023-03-15T11:59:52.142Z,6532.00
2023-03-15T12:00:52.084Z,6600.00
2023-03-15T12:01:52.151Z,6584.00
2023-03-15T12:02:52.050Z,3784.00
2023-03-15T12:03:52.061Z,5984.00
2023-03-15T12:04:52.000Z,6672.00
2023-03-15T12:05:52.004Z,4656.00
2023-03-15T12:06:51.965Z,4176.00
2023-03-15T12:07:51.961Z,4892.00
2023-03-15T12:08:52.008Z,7016.00
2023-03-15T12:09:51.968Z,7120.00
2023-03-15T12:10:51.953Z,6608.00
2023-03-15T12:11:51.912Z,4316.00
2023-03-15T12:12:51.905Z,3800.00
2023-03-15T12:13:51.918Z,3520.00
2023-03-15T12:14:51.852Z,3328.00
2023-03-15T12:15:51.877Z,3276.00
2023-03-15T12:16:51.871Z,3288.00
2023-03-15T12:17:51.811Z,3180.00
2023-03-15T12:18:51.843Z,6028.00
2023-03-15T12:19:51.781Z,6052.00
2023-03-15T12:20:51.800Z,6004.00
2023-03-15T12:21:51.816Z,6000.00
2023-03-15T12:22:51.775Z,5412.00
2023-03-15T12:23:51.739Z,5644.00
2023-03-15T12:24:51.781Z,5800.00
2023-03-15T12:25:55.037Z,6060.00
2023-03-15T12:26:51.704Z,2900.00
2023-03-15T12:27:51.691Z,2956.00
2023-03-15T12:28:51.691Z,3000.00
2023-03-15T12:29:51.694Z,3072.00
2023-03-15T12:30:51.693Z,5236.00
2023-03-15T12:31:51.667Z,6388.00
2023-03-15T12:32:51.737Z,6472.00
2023-03-15T12:33:51.571Z,6568.00
2023-03-15T12:34:52.060Z,6588.00
2023-03-15T12:35:51.628Z,6600.00
2023-03-15T12:36:51.546Z,6640.00
2023-03-15T12:37:51.523Z,6668.00
2023-03-15T12:38:51.558Z,6640.00
2023-03-15T12:39:51.514Z,6608.00
2023-03-15T12:40:51.497Z,2920.00
2023-03-15T12:41:51.517Z,2884.00
2023-03-15T12:42:51.542Z,2876.00
2023-03-15T12:43:51.443Z,2908.00
2023-03-15T12:44:51.443Z,2992.00
2023-03-15T12:45:51.480Z,3136.00
2023-03-15T12:46:51.420Z,4584.00
2023-03-15T12:47:51.399Z,6644.00
2023-03-15T12:48:51.409Z,6608.00
2023-03-15T12:49:51.381Z,6624.00
2023-03-15T12:50:51.370Z,6616.00
2023-03-15T12:51:51.341Z,6744.00
2023-03-15T12:52:51.338Z,6960.00
2023-03-15T12:53:51.334Z,6996.00
2023-03-15T12:54:51.285Z,3552.00
2023-03-15T12:55:54.056Z,3484.00
2023-03-15T12:56:52.344Z,3396.00
2023-03-15T12:57:51.276Z,3180.00
2023-03-15T12:58:51.274Z,3008.00
2023-03-15T12:59:51.226Z,2908.00
2023-03-15T13:00:51.309Z,2908.00
2023-03-15T13:01:51.261Z,2980.00
2023-03-15T13:02:51.282Z,3036.00
2023-03-15T13:03:51.158Z,3016.00
2023-03-15T13:04:51.178Z,2980.00
2023-03-15T13:06:02.836Z,3000.00
2023-03-15T13:06:52.230Z,2964.00
2023-03-15T13:07:51.692Z,3000.00
2023-03-15T13:08:51.129Z,2988.00
2023-03-15T13:09:51.138Z,2872.00
2023-03-15T13:10:51.086Z,3296.00
2023-03-15T13:11:51.071Z,4516.00
2023-03-15T13:12:51.067Z,6424.00
2023-03-15T13:13:51.069Z,6132.00
2023-03-15T13:14:51.051Z,6368.00
2023-03-15T13:15:51.026Z,6568.00
2023-03-15T13:16:51.020Z,6648.00
2023-03-15T13:17:51.012Z,6696.00
2023-03-15T13:18:51.026Z,6684.00
2023-03-15T13:19:50.941Z,6648.00
2023-03-15T13:20:50.926Z,6584.00
2023-03-15T13:21:50.911Z,6548.00
2023-03-15T13:22:55.498Z,6540.00
2023-03-15T13:23:50.885Z,6552.00
2023-03-15T13:24:50.883Z,6536.00
2023-03-15T13:25:50.870Z,6576.00
2023-03-15T13:26:50.846Z,6620.00
2023-03-15T13:27:50.908Z,6584.00
2023-03-15T13:28:50.844Z,6612.00
2023-03-15T13:29:50.825Z,6664.00
2023-03-15T13:30:50.841Z,6660.00
2023-03-15T13:31:50.768Z,6612.00
2023-03-15T13:32:50.912Z,6640.00
2023-03-15T13:33:50.773Z,6628.00
2023-03-15T13:34:50.831Z,6660.00
2023-03-15T13:35:50.803Z,6644.00
2023-03-15T13:36:50.737Z,6704.00
2023-03-15T13:37:50.719Z,6564.00
2023-03-15T13:38:50.718Z,6320.00
2023-03-15T13:39:50.699Z,6596.00
2023-03-15T13:40:50.665Z,6376.00
2023-03-15T13:41:50.656Z,2660.00
2023-03-15T13:42:50.638Z,2512.00
2023-03-15T13:43:50.665Z,2548.00
2023-03-15T13:44:50.606Z,2688.00
2023-03-15T13:45:50.591Z,3628.00
2023-03-15T13:46:50.632Z,6584.00
2023-03-15T13:47:50.614Z,6580.00
2023-03-15T13:48:50.559Z,6592.00
2023-03-15T13:49:50.537Z,6704.00
2023-03-15T13:50:50.563Z,6672.00
2023-03-15T13:51:50.514Z,6664.00
2023-03-15T13:52:58.030Z,6652.00
2023-03-15T13:53:50.558Z,6536.00
2023-03-15T13:54:50.528Z,6272.00
2023-03-15T13:55:50.526Z,6020.00
2023-03-15T13:56:50.580Z,5284.00
2023-03-15T13:57:50.529Z,5888.00
2023-03-15T13:58:50.484Z,5928.00
2023-03-15T13:59:50.443Z,6128.00
2023-03-15T14:00:57.963Z,6204.00
2023-03-15T14:01:50.434Z,6164.00
2023-03-15T14:02:50.429Z,4224.00
2023-03-15T14:03:50.409Z,2964.00
2023-03-15T14:04:50.335Z,2964.00
2023-03-15T14:05:50.330Z,3016.00
2023-03-15T14:06:58.864Z,3000.00
2023-03-15T14:07:59.080Z,5240.00
2023-03-15T14:08:50.281Z,3000.00
2023-03-15T14:09:50.334Z,2972.00
2023-03-15T14:10:50.277Z,2980.00
2023-03-15T14:11:50.255Z,3068.00
2023-03-15T14:12:50.283Z,3364.00
2023-03-15T14:13:50.244Z,4060.00
2023-03-15T14:14:50.249Z,5832.00
2023-03-15T14:15:50.306Z,5832.00
2023-03-15T14:17:04.235Z,5880.00
2023-03-15T14:17:51.158Z,5912.00
2023-03-15T14:18:50.158Z,5876.00
2023-03-15T14:19:50.135Z,6036.00
2023-03-15T14:20:50.144Z,6200.00
2023-03-15T14:21:50.133Z,5972.00
2023-03-15T14:22:52.161Z,5460.00
2023-03-15T14:23:50.131Z,5480.00
2023-03-15T14:24:50.085Z,6096.00
2023-03-15T14:25:50.065Z,6064.00
2023-03-15T14:26:50.104Z,5624.00
2023-03-15T14:27:50.037Z,5712.00
2023-03-15T14:28:50.048Z,5664.00
2023-03-15T14:29:50.098Z,5556.00
2023-03-15T14:30:50.025Z,5388.00
2023-03-15T14:31:50.121Z,5292.00
2023-03-15T14:32:50.089Z,4976.00
2023-03-15T14:33:49.999Z,4736.00
2023-03-15T14:34:49.971Z,4396.00
2023-03-15T14:35:49.984Z,4844.00
2023-03-15T14:36:49.944Z,5264.00
2023-03-15T14:37:49.901Z,5368.00
2023-03-15T14:38:49.929Z,5296.00
2023-03-15T14:39:49.880Z,5124.00
2023-03-15T14:40:49.866Z,5236.00
2023-03-15T14:41:49.861Z,5500.00
2023-03-15T14:42:49.868Z,5492.00
2023-03-15T14:43:49.860Z,5092.00
2023-03-15T14:44:49.830Z,5368.00
2023-03-15T14:45:49.859Z,5260.00
2023-03-15T14:46:49.802Z,5380.00
2023-03-15T14:47:56.674Z,5348.00
2023-03-15T14:48:50.788Z,5496.00
2023-03-15T14:49:49.775Z,5408.00
2023-03-15T14:50:49.803Z,5272.00
2023-03-15T14:51:49.754Z,5192.00
2023-03-15T14:52:49.692Z,5168.00
2023-03-15T14:53:49.693Z,5144.00
2023-03-15T14:54:49.674Z,5180.00
2023-03-15T14:55:49.675Z,5156.00
2023-03-15T14:56:49.692Z,5116.00
2023-03-15T14:57:49.644Z,5160.00
2023-03-15T14:58:49.671Z,5260.00
2023-03-15T14:59:49.653Z,5176.00
2023-03-15T15:00:49.718Z,4788.00
2023-03-15T15:01:49.612Z,4580.00
2023-03-15T15:02:49.578Z,4488.00
2023-03-15T15:03:49.562Z,4484.00
2023-03-15T15:04:49.594Z,4408.00
2023-03-15T15:05:49.544Z,4320.00
2023-03-15T15:06:49.549Z,4080.00
2023-03-15T15:07:49.494Z,4348.00
2023-03-15T15:08:49.529Z,4368.00
2023-03-15T15:09:49.539Z,4188.00
2023-03-15T15:10:49.460Z,4076.00
2023-03-15T15:11:49.462Z,4020.00
2023-03-15T15:12:56.164Z,4024.00
2023-03-15T15:13:50.440Z,3764.00
2023-03-15T15:14:49.439Z,3644.00
2023-03-15T15:15:55.641Z,3708.00
2023-03-15T15:16:50.487Z,3744.00
2023-03-15T15:17:49.391Z,3712.00
2023-03-15T15:18:49.371Z,3648.00
2023-03-15T15:19:49.346Z,3432.00
2023-03-15T15:20:49.351Z,3304.00
2023-03-15T15:21:49.360Z,2532.00
2023-03-15T15:22:49.354Z,2368.00
2023-03-15T15:23:58.538Z,2312.00
2023-03-15T15:24:51.462Z,2268.00
2023-03-15T15:25:49.316Z,2240.00
2023-03-15T15:26:49.253Z,2264.00
2023-03-15T15:27:49.246Z,2376.00
2023-03-15T15:28:49.263Z,2248.00
2023-03-15T15:29:49.216Z,2224.00
2023-03-15T15:30:49.911Z,2244.00
2023-03-15T15:31:49.296Z,2360.00
2023-03-15T15:32:49.406Z,2788.00
2023-03-15T15:33:49.257Z,2800.00
2023-03-15T15:34:49.192Z,2792.00
2023-03-15T15:35:49.181Z,2856.00
2023-03-15T15:36:49.187Z,2840.00
2023-03-15T15:37:49.113Z,2916.00
2023-03-15T15:38:49.111Z,3032.00
2023-03-15T15:39:49.075Z,3124.00
2023-03-15T15:40:49.064Z,3112.00
2023-03-15T15:41:49.061Z,3144.00
2023-03-15T15:42:49.033Z,3092.00
2023-03-15T15:43:49.038Z,3020.00
2023-03-15T15:44:49.033Z,3092.00
2023-03-15T15:45:49.026Z,3204.00
2023-03-15T15:46:48.976Z,3168.00
2023-03-15T15:47:48.952Z,2984.00
2023-03-15T15:48:48.941Z,2852.00
2023-03-15T15:49:48.984Z,2760.00
2023-03-15T15:50:48.925Z,2668.00
2023-03-15T15:51:48.916Z,2624.00
2023-03-15T15:52:48.899Z,2548.00
2023-03-15T15:53:48.884Z,2436.00
2023-03-15T15:54:48.892Z,2356.00
2023-03-15T15:55:48.926Z,2304.00
2023-03-15T15:56:48.846Z,2304.00
2023-03-15T15:57:48.826Z,2280.00
2023-03-15T15:58:48.827Z,2276.00
2023-03-15T15:59:48.799Z,2240.00
2023-03-15T16:00:48.820Z,2232.00
2023-03-15T16:01:59.675Z,2208.00
2023-03-15T16:02:49.850Z,2192.00
2023-03-15T16:03:48.741Z,2164.00
2023-03-15T16:04:48.773Z,2176.00
2023-03-15T16:05:48.775Z,2124.00
2023-03-15T16:06:48.723Z,2012.00
2023-03-15T16:07:48.701Z,1928.00
2023-03-15T16:08:48.751Z,1896.00
2023-03-15T16:09:48.677Z,1888.00
2023-03-15T16:10:48.686Z,1884.00
2023-03-15T16:11:48.661Z,1872.00
2023-03-15T16:12:48.736Z,1852.00
2023-03-15T16:13:48.636Z,1828.00
2023-03-15T16:14:48.622Z,1800.00
2023-03-15T16:15:48.686Z,1792.00
2023-03-15T16:16:48.600Z,1780.00
2023-03-15T16:17:48.561Z,1772.00
2023-03-15T16:18:48.631Z,1764.00
2023-03-15T16:19:48.539Z,1756.00
2023-03-15T16:20:48.523Z,1740.00
2023-03-15T16:21:48.519Z,1728.00
2023-03-15T16:22:48.660Z,1712.00
2023-03-15T16:23:48.466Z,1692.00
2023-03-15T16:24:48.481Z,1656.00
2023-03-15T16:25:48.462Z,1656.00
2023-03-15T16:26:48.555Z,1632.00
2023-03-15T16:27:48.474Z,1616.00
2023-03-15T16:28:48.453Z,1596.00
2023-03-15T16:29:48.396Z,1568.00
2023-03-15T16:30:48.435Z,1532.00
2023-03-15T16:31:48.346Z,1500.00
2023-03-15T16:32:48.394Z,1476.00
2023-03-15T16:33:48.322Z,1448.00
2023-03-15T16:34:48.309Z,1424.00
2023-03-15T16:35:48.326Z,1404.00
2023-03-15T16:36:49.542Z,1384.00
2023-03-15T16:37:48.361Z,1352.00
2023-03-15T16:38:48.338Z,1328.00
2023-03-15T16:39:48.285Z,1304.00
2023-03-15T16:40:48.280Z,1288.00
2023-03-15T16:41:48.251Z,1268.00
2023-03-15T16:42:48.258Z,1252.00
2023-03-15T16:43:49.469Z,1236.00
2023-03-15T16:44:48.183Z,1216.00
2023-03-15T16:45:48.283Z,1196.00
2023-03-15T16:46:48.423Z,1172.00
2023-03-15T16:47:48.162Z,1148.00
2023-03-15T16:48:48.185Z,1120.00
2023-03-15T16:49:48.101Z,1096.00
2023-03-15T16:50:48.229Z,1072.00
2023-03-15T16:51:48.133Z,1048.00
2023-03-15T16:52:48.105Z,1016.00
2023-03-15T16:53:48.077Z,984.00
2023-03-15T16:54:48.961Z,944.00
2023-03-15T16:55:48.045Z,904.00
2023-03-15T16:56:48.021Z,864.00
2023-03-15T16:57:48.046Z,828.00
2023-03-15T16:58:47.998Z,792.00
2023-03-15T16:59:47.964Z,760.00
2023-03-15T17:00:48.372Z,736.00
2023-03-15T17:01:48.015Z,708.00
2023-03-15T17:02:47.892Z,684.00
2023-03-15T17:03:47.904Z,660.00
2023-03-15T17:04:47.956Z,632.00
2023-03-15T17:05:47.944Z,608.00
2023-03-15T17:06:47.925Z,580.00
2023-03-15T17:07:47.918Z,560.00
2023-03-15T17:08:47.843Z,540.00
2023-03-15T17:09:47.852Z,520.00
2023-03-15T17:10:47.842Z,496.00
2023-03-15T17:11:47.844Z,476.00
2023-03-15T17:12:47.881Z,456.00
2023-03-15T17:13:47.881Z,436.00
2023-03-15T17:14:47.782Z,416.00
2023-03-15T17:15:48.062Z,400.00
2023-03-15T17:16:47.861Z,384.00
2023-03-15T17:17:47.785Z,364.00
2023-03-15T17:18:47.760Z,340.00
2023-03-15T17:19:47.953Z,320.00
2023-03-15T17:20:47.894Z,300.00
2023-03-15T17:21:47.855Z,280.00
2023-03-15T17:22:47.900Z,264.00
2023-03-15T17:23:47.855Z,244.00
2023-03-15T17:24:47.958Z,228.00
2023-03-15T17:25:47.901Z,208.00
2023-03-15T17:26:47.771Z,192.00
2023-03-15T17:27:47.844Z,176.00
2023-03-15T17:28:47.670Z,160.00
2023-03-15T17:29:47.660Z,148.00
2023-03-15T17:30:49.804Z,136.00
2023-03-15T17:31:47.715Z,128.00
2023-03-15T17:32:47.840Z,116.00
2023-03-15T17:33:47.601Z,104.00
2023-03-15T17:34:47.705Z,100.00
2023-03-15T17:35:47.642Z,92.00
2023-03-15T17:36:47.534Z,84.00
2023-03-15T17:37:47.526Z,76.00
2023-03-15T17:38:47.797Z,64.00
2023-03-15T17:39:47.484Z,60.00
2023-03-15T17:40:47.805Z,52.00
2023-03-15T17:41:47.457Z,48.00
2023-03-15T17:42:47.514Z,40.00
2023-03-15T17:43:47.491Z,36.00
2023-03-15T17:44:47.476Z,32.00
2023-03-15T17:45:47.421Z,28.00
2023-03-15T17:46:47.511Z,24.00
2023-03-15T17:47:47.391Z,20.00
2023-03-15T17:48:47.445Z,20.00
2023-03-15T17:49:47.516Z,16.00
2023-03-15T17:50:47.494Z,12.00
2023-03-15T17:51:47.486Z,12.00
2023-03-15T17:52:47.577Z,8.00
2023-03-15T17:53:47.752Z,8.00
2023-03-15T17:54:47.501Z,8.00
2023-03-15T17:55:47.461Z,4.00
2023-03-15T17:56:47.574Z,4.00
2023-03-15T17:57:54.803Z,4.00
2023-03-15T17:58:48.458Z,4.00
2023-03-15T17:59:47.391Z,4.00
2023-03-15T18:00:47.320Z,4.00
2023-03-15T18:01:47.224Z,0.00
2023-03-15T18:02:54.998Z,0.00
2023-03-15T18:03:48.409Z,0.00
2023-03-15T18:04:47.652Z,0.00
2023-03-15T18:05:47.339Z,0.00
2023-03-15T18:06:47.307Z,0.00
2023-03-15T18:07:58.285Z,0.00
2023-03-15T18:08:48.168Z,0.00
2023-03-15T18:09:47.292Z,0.00
2023-03-15T18:10:47.198Z,0.00
2023-03-15T18:11:47.209Z,0.00
2023-03-15T18:12:47.194Z,0.00
2023-03-15T18:13:47.170Z,0.00
2023-03-15T18:14:47.105Z,0.00
2023-03-15T18:15:47.232Z,0.00
2023-03-15T18:16:47.149Z,0.00
2023-03-15T18:17:47.113Z,0.00
2023-03-15T18:18:47.071Z,0.00
2023-03-15T18:19:47.105Z,0.00
2023-03-15T18:20:47.197Z,0.00
2023-03-15T18:21:47.037Z,0.00
2023-03-15T18:22:47.185Z,0.00
2023-03-15T18:23:46.972Z,0.00
2023-03-15T18:24:47.288Z,0.00
2023-03-15T18:25:46.942Z,0.00
2023-03-15T18:26:46.987Z,0.00
2023-03-15T18:27:46.918Z,0.00
2023-03-15T18:28:46.994Z,0.00
2023-03-15T18:29:47.014Z,0.00
2023-03-15T18:30:47.044Z,0.00
2023-03-15T18:31:47.238Z,0.00
2023-03-15T18:32:47.300Z,0.00
2023-03-15T18:33:46.904Z,0.00
2023-03-15T18:34:46.935Z,0.00
2023-03-15T18:35:47.338Z,0.00
2023-03-15T18:36:46.845Z,0.00
2023-03-15T18:37:46.812Z,0.00
2023-03-15T18:38:46.948Z,0.00
2023-03-15T18:39:46.835Z,0.00
2023-03-15T18:40:46.819Z,0.00
2023-03-15T18:41:46.802Z,0.00
2023-03-15T18:42:46.869Z,0.00
2023-03-15T18:43:46.854Z,0.00
2023-03-15T18:44:46.704Z,0.00
2023-03-15T18:45:46.708Z,0.00
2023-03-15T18:46:46.726Z,0.00
2023-03-15T18:47:46.661Z,0.00
2023-03-15T18:48:46.822Z,0.00
2023-03-15T18:49:46.993Z,0.00
2023-03-15T18:50:46.804Z,0.00
2023-03-15T18:51:46.711Z,0.00
2023-03-15T18:52:46.752Z,0.00
2023-03-15T18:53:46.646Z,0.00
2023-03-15T18:54:46.550Z,0.00
2023-03-15T18:55:46.569Z,0.00
2023-03-15T18:56:46.641Z,0.00
2023-03-15T18:57:46.609Z,0.00
2023-03-15T18:58:46.476Z,0.00
2023-03-15T18:59:46.469Z,0.00
2023-03-15T19:00:46.452Z,0.00
2023-03-15T19:01:46.563Z,0.00
2023-03-15T19:02:46.529Z,0.00
2023-03-15T19:03:46.475Z,0.00
2023-03-15T19:04:46.386Z,0.00
2023-03-15T19:05:46.414Z,0.00
2023-03-15T19:06:46.349Z,0.00
2023-03-15T19:07:47.772Z,0.00
2023-03-15T19:08:46.339Z,0.00
2023-03-15T19:09:46.333Z,0.00
2023-03-15T19:10:46.305Z,0.00
2023-03-15T19:11:46.288Z,0.00
2023-03-15T19:12:46.287Z,0.00
2023-03-15T19:13:46.284Z,0.00
2023-03-15T19:14:46.291Z,0.00
2023-03-15T19:15:46.253Z,0.00
2023-03-15T19:16:46.334Z,0.00
2023-03-15T19:17:46.246Z,0.00
2023-03-15T19:18:46.235Z,0.00
2023-03-15T19:19:46.187Z,0.00
2023-03-15T19:20:46.212Z,0.00
2023-03-15T19:21:46.244Z,0.00